sensor_id;sensor_type;location;lat;lon;timestamp;P1;durP1;ratioP1;P2;durP2;ratioP2
32242;SDS011;18731;42.830;24.390;2022-09-23T03:03:41;13.05;;;6.50;;
32242;SDS011;18731;42.830;24.390;2022-09-23T03:06:30;17.13;;;5.15;;
32242;SDS011;18731;42.830;24.390;2022-09-23T03:09:03;7.88;;;4.80;;
32242;SDS011;18731;42.830;24.390;2022-09-23T03:11:33;9.02;;;4.95;;
32242;SDS011;18731;42.830;24.390;2022-09-23T03:17:24;8.70;;;4.22;;
32242;SDS011;18731;42.830;24.390;2022-09-23T03:20:20;7.32;;;4.00;;
32242;SDS011;18731;42.830;24.390;2022-09-23T03:22:54;9.00;;;3.83;;
32242;SDS011;18731;42.830;24.390;2022-09-23T03:25:25;7.03;;;4.65;;
32242;SDS011;18731;42.830;24.390;2022-09-23T03:27:56;6.32;;;4.50;;
32242;SDS011;18731;42.830;24.390;2022-09-23T03:30:23;7.10;;;4.80;;
32242;SDS011;18731;42.830;24.390;2022-09-23T03:32:50;7.50;;;4.75;;
32242;SDS011;18731;42.830;24.390;2022-09-23T03:35:17;8.30;;;5.40;;
32242;SDS011;18731;42.830;24.390;2022-09-23T03:37:51;8.02;;;4.90;;
32242;SDS011;18731;42.830;24.390;2022-09-23T03:40:33;9.32;;;4.82;;
32242;SDS011;18731;42.830;24.390;2022-09-23T03:43:06;9.77;;;5.80;;
32242;SDS011;18731;42.830;24.390;2022-09-23T03:45:33;10.73;;;5.47;;
32242;SDS011;18731;42.830;24.390;2022-09-23T03:47:59;6.50;;;5.05;;
32242;SDS011;18731;42.830;24.390;2022-09-23T03:50:26;8.75;;;5.35;;
32242;SDS011;18731;42.830;24.390;2022-09-23T03:52:52;7.70;;;5.20;;
32242;SDS011;18731;42.830;24.390;2022-09-23T03:55:18;10.13;;;6.82;;
32242;SDS011;18731;42.830;24.390;2022-09-23T03:57:44;10.50;;;6.38;;
32242;SDS011;18731;42.830;24.390;2022-09-23T04:00:11;10.93;;;6.05;;
32242;SDS011;18731;42.830;24.390;2022-09-23T04:02:37;14.13;;;5.93;;
32242;SDS011;18731;42.830;24.390;2022-09-23T04:05:03;8.95;;;6.05;;
32242;SDS011;18731;42.830;24.390;2022-09-23T04:07:30;9.00;;;5.80;;
32242;SDS011;18731;42.830;24.390;2022-09-23T04:09:56;10.40;;;5.43;;
32242;SDS011;18731;42.830;24.390;2022-09-23T04:12:21;9.18;;;5.55;;
32242;SDS011;18731;42.830;24.390;2022-09-23T04:14:47;9.32;;;5.68;;
32242;SDS011;18731;42.830;24.390;2022-09-23T04:17:13;7.43;;;5.55;;
32242;SDS011;18731;42.830;24.390;2022-09-23T04:19:38;9.40;;;5.60;;
32242;SDS011;18731;42.830;24.390;2022-09-23T04:22:04;8.93;;;6.05;;
32242;SDS011;18731;42.830;24.390;2022-09-23T04:24:31;11.23;;;5.80;;
32242;SDS011;18731;42.830;24.390;2022-09-23T04:26:56;11.48;;;6.35;;
32242;SDS011;18731;42.830;24.390;2022-09-23T04:29:23;13.40;;;6.10;;
32242;SDS011;18731;42.830;24.390;2022-09-23T04:31:49;20.55;;;10.07;;
32242;SDS011;18731;42.830;24.390;2022-09-23T04:34:16;12.57;;;7.15;;
32242;SDS011;18731;42.830;24.390;2022-09-23T04:36:42;11.63;;;6.00;;
32242;SDS011;18731;42.830;24.390;2022-09-23T04:39:09;14.88;;;8.50;;
32242;SDS011;18731;42.830;24.390;2022-09-23T04:41:35;13.52;;;7.00;;
32242;SDS011;18731;42.830;24.390;2022-09-23T04:44:01;15.93;;;8.60;;
32242;SDS011;18731;42.830;24.390;2022-09-23T04:46:27;26.45;;;12.70;;
32242;SDS011;18731;42.830;24.390;2022-09-23T04:48:53;17.00;;;8.52;;
32242;SDS011;18731;42.830;24.390;2022-09-23T04:51:20;24.23;;;12.77;;
32242;SDS011;18731;42.830;24.390;2022-09-23T04:53:49;24.38;;;13.80;;
32242;SDS011;18731;42.830;24.390;2022-09-23T04:56:18;23.33;;;14.93;;
32242;SDS011;18731;42.830;24.390;2022-09-23T04:58:48;18.48;;;11.98;;
32242;SDS011;18731;42.830;24.390;2022-09-23T05:01:19;17.33;;;9.35;;
32242;SDS011;18731;42.830;24.390;2022-09-23T05:03:57;20.10;;;10.45;;
32242;SDS011;18731;42.830;24.390;2022-09-23T05:06:31;20.65;;;12.20;;
32242;SDS011;18731;42.830;24.390;2022-09-23T05:09:01;25.50;;;16.25;;
32242;SDS011;18731;42.830;24.390;2022-09-23T05:11:29;22.27;;;14.68;;
32242;SDS011;18731;42.830;24.390;2022-09-23T05:13:56;19.83;;;12.70;;
32242;SDS011;18731;42.830;24.390;2022-09-23T05:16:22;23.55;;;16.95;;
32242;SDS011;18731;42.830;24.390;2022-09-23T05:18:49;12.77;;;7.63;;
32242;SDS011;18731;42.830;24.390;2022-09-23T05:21:17;12.60;;;7.55;;
32242;SDS011;18731;42.830;24.390;2022-09-23T05:23:48;13.40;;;5.93;;
32242;SDS011;18731;42.830;24.390;2022-09-23T05:26:18;10.70;;;6.15;;
32242;SDS011;18731;42.830;24.390;2022-09-23T05:28:45;8.13;;;6.43;;
32242;SDS011;18731;42.830;24.390;2022-09-23T05:31:11;10.13;;;6.13;;
32242;SDS011;18731;42.830;24.390;2022-09-23T05:33:40;8.90;;;6.93;;
32242;SDS011;18731;42.830;24.390;2022-09-23T05:36:08;11.20;;;5.57;;
32242;SDS011;18731;42.830;24.390;2022-09-23T05:38:34;9.43;;;5.80;;
32242;SDS011;18731;42.830;24.390;2022-09-23T05:41:01;8.63;;;6.70;;
32242;SDS011;18731;42.830;24.390;2022-09-23T05:43:29;12.45;;;6.75;;
32242;SDS011;18731;42.830;24.390;2022-09-23T05:46:01;11.73;;;6.20;;
32242;SDS011;18731;42.830;24.390;2022-09-23T05:48:38;11.13;;;5.78;;
32242;SDS011;18731;42.830;24.390;2022-09-23T05:51:05;8.60;;;5.30;;
32242;SDS011;18731;42.830;24.390;2022-09-23T05:53:33;11.00;;;5.53;;
32242;SDS011;18731;42.830;24.390;2022-09-23T05:55:59;9.20;;;5.30;;
32242;SDS011;18731;42.830;24.390;2022-09-23T05:58:25;8.00;;;5.32;;
32242;SDS011;18731;42.830;24.390;2022-09-23T06:00:51;10.75;;;5.47;;
32242;SDS011;18731;42.830;24.390;2022-09-23T06:03:20;6.93;;;5.40;;
32242;SDS011;18731;42.830;24.390;2022-09-23T06:05:47;8.40;;;5.20;;
32242;SDS011;18731;42.830;24.390;2022-09-23T06:08:17;8.60;;;4.68;;
32242;SDS011;18731;42.830;24.390;2022-09-23T06:10:43;5.57;;;4.72;;
32242;SDS011;18731;42.830;24.390;2022-09-23T06:13:10;7.35;;;4.90;;
32242;SDS011;18731;42.830;24.390;2022-09-23T06:15:37;7.65;;;5.85;;
32242;SDS011;18731;42.830;24.390;2022-09-23T06:18:03;15.40;;;8.90;;
32242;SDS011;18731;42.830;24.390;2022-09-23T06:20:30;11.40;;;7.85;;
32242;SDS011;18731;42.830;24.390;2022-09-23T06:23:03;7.63;;;6.00;;
32242;SDS011;18731;42.830;24.390;2022-09-23T06:25:33;9.05;;;6.40;;
32242;SDS011;18731;42.830;24.390;2022-09-23T06:28:00;10.52;;;6.70;;
32242;SDS011;18731;42.830;24.390;2022-09-23T06:30:27;10.63;;;6.93;;
32242;SDS011;18731;42.830;24.390;2022-09-23T06:32:54;16.92;;;7.53;;
32242;SDS011;18731;42.830;24.390;2022-09-23T06:35:22;11.88;;;6.60;;
32242;SDS011;18731;42.830;24.390;2022-09-23T06:37:50;9.80;;;6.65;;
32242;SDS011;18731;42.830;24.390;2022-09-23T06:40:17;11.07;;;5.88;;
32242;SDS011;18731;42.830;24.390;2022-09-23T06:42:43;5.43;;;4.03;;
32242;SDS011;18731;42.830;24.390;2022-09-23T06:45:09;7.07;;;5.00;;
32242;SDS011;18731;42.830;24.390;2022-09-23T06:47:39;8.45;;;4.85;;
32242;SDS011;18731;42.830;24.390;2022-09-23T06:50:06;7.45;;;4.90;;
32242;SDS011;18731;42.830;24.390;2022-09-23T06:52:33;8.07;;;6.50;;
32242;SDS011;18731;42.830;24.390;2022-09-23T06:54:59;10.88;;;8.40;;
32242;SDS011;18731;42.830;24.390;2022-09-23T06:57:28;13.98;;;9.02;;
32242;SDS011;18731;42.830;24.390;2022-09-23T06:59:54;13.55;;;7.28;;
32242;SDS011;18731;42.830;24.390;2022-09-23T07:02:22;8.48;;;5.45;;
32242;SDS011;18731;42.830;24.390;2022-09-23T07:04:48;9.45;;;6.82;;
32242;SDS011;18731;42.830;24.390;2022-09-23T07:07:13;10.30;;;7.40;;
32242;SDS011;18731;42.830;24.390;2022-09-23T07:09:40;8.80;;;6.50;;
32242;SDS011;18731;42.830;24.390;2022-09-23T07:12:06;8.60;;;6.15;;
32242;SDS011;18731;42.830;24.390;2022-09-23T07:14:32;9.43;;;7.40;;
32242;SDS011;18731;42.830;24.390;2022-09-23T07:16:57;18.70;;;8.77;;
32242;SDS011;18731;42.830;24.390;2022-09-23T07:19:24;10.93;;;8.20;;
32242;SDS011;18731;42.830;24.390;2022-09-23T07:21:50;10.52;;;7.43;;
32242;SDS011;18731;42.830;24.390;2022-09-23T07:24:15;11.15;;;5.65;;
32242;SDS011;18731;42.830;24.390;2022-09-23T07:26:42;9.93;;;5.60;;
32242;SDS011;18731;42.830;24.390;2022-09-23T07:29:10;7.03;;;5.78;;
32242;SDS011;18731;42.830;24.390;2022-09-23T07:31:38;10.25;;;5.80;;
32242;SDS011;18731;42.830;24.390;2022-09-23T07:34:04;8.60;;;5.30;;
32242;SDS011;18731;42.830;24.390;2022-09-23T07:36:30;6.63;;;5.65;;
32242;SDS011;18731;42.830;24.390;2022-09-23T07:38:57;7.10;;;5.50;;
32242;SDS011;18731;42.830;24.390;2022-09-23T07:41:28;11.48;;;6.32;;
32242;SDS011;18731;42.830;24.390;2022-09-23T07:43:56;9.80;;;6.50;;
32242;SDS011;18731;42.830;24.390;2022-09-23T07:46:31;15.20;;;6.00;;
32242;SDS011;18731;42.830;24.390;2022-09-23T07:48:58;9.27;;;6.43;;
32242;SDS011;18731;42.830;24.390;2022-09-23T07:51:25;15.23;;;6.32;;
32242;SDS011;18731;42.830;24.390;2022-09-23T07:53:53;7.30;;;4.22;;
32242;SDS011;18731;42.830;24.390;2022-09-23T07:56:20;5.47;;;3.53;;
32242;SDS011;18731;42.830;24.390;2022-09-23T07:58:49;3.03;;;2.40;;
32242;SDS011;18731;42.830;24.390;2022-09-23T08:01:27;2.40;;;2.05;;
32242;SDS011;18731;42.830;24.390;2022-09-23T08:03:58;2.25;;;1.80;;
32242;SDS011;18731;42.830;24.390;2022-09-23T08:06:26;2.13;;;1.92;;
32242;SDS011;18731;42.830;24.390;2022-09-23T08:08:52;3.75;;;1.40;;
32242;SDS011;18731;42.830;24.390;2022-09-23T08:11:17;1.40;;;1.30;;
32242;SDS011;18731;42.830;24.390;2022-09-23T08:13:43;6.22;;;1.77;;
32242;SDS011;18731;42.830;24.390;2022-09-23T08:16:09;2.05;;;1.33;;
32242;SDS011;18731;42.830;24.390;2022-09-23T08:18:35;2.03;;;1.50;;
32242;SDS011;18731;42.830;24.390;2022-09-23T08:21:01;1.40;;;1.30;;
32242;SDS011;18731;42.830;24.390;2022-09-23T08:23:27;2.05;;;1.35;;
32242;SDS011;18731;42.830;24.390;2022-09-23T08:25:58;1.90;;;1.40;;
32242;SDS011;18731;42.830;24.390;2022-09-23T08:28:28;1.30;;;1.20;;
32242;SDS011;18731;42.830;24.390;2022-09-23T08:30:54;3.83;;;1.30;;
32242;SDS011;18731;42.830;24.390;2022-09-23T08:33:20;2.33;;;1.40;;
32242;SDS011;18731;42.830;24.390;2022-09-23T08:35:46;1.55;;;1.45;;
32242;SDS011;18731;42.830;24.390;2022-09-23T08:38:12;1.45;;;1.30;;
32242;SDS011;18731;42.830;24.390;2022-09-23T08:40:38;1.60;;;1.48;;
32242;SDS011;18731;42.830;24.390;2022-09-23T08:43:07;2.38;;;1.20;;
32242;SDS011;18731;42.830;24.390;2022-09-23T08:45:41;2.10;;;1.40;;
32242;SDS011;18731;42.830;24.390;2022-09-23T08:48:12;4.40;;;1.40;;
32242;SDS011;18731;42.830;24.390;2022-09-23T08:50:46;3.15;;;1.70;;
32242;SDS011;18731;42.830;24.390;2022-09-23T08:55:49;1.35;;;1.10;;
32242;SDS011;18731;42.830;24.390;2022-09-23T09:03:55;1.17;;;1.08;;
32242;SDS011;18731;42.830;24.390;2022-09-23T09:06:27;0.85;;;0.85;;
32242;SDS011;18731;42.830;24.390;2022-09-23T09:08:58;1.35;;;1.10;;
32242;SDS011;18731;42.830;24.390;2022-09-23T09:11:28;3.65;;;1.00;;
32242;SDS011;18731;42.830;24.390;2022-09-23T09:14:02;1.13;;;0.98;;
32242;SDS011;18731;42.830;24.390;2022-09-23T09:21:59;3.55;;;0.88;;
32242;SDS011;18731;42.830;24.390;2022-09-23T09:24:32;1.77;;;1.13;;
32242;SDS011;18731;42.830;24.390;2022-09-23T09:27:00;4.15;;;0.90;;
32242;SDS011;18731;42.830;24.390;2022-09-23T09:29:35;1.30;;;1.17;;
32242;SDS011;18731;42.830;24.390;2022-09-23T09:35:58;3.72;;;1.02;;
32242;SDS011;18731;42.830;24.390;2022-09-23T09:38:25;1.02;;;0.95;;
32242;SDS011;18731;42.830;24.390;2022-09-23T09:40:52;2.85;;;1.10;;
32242;SDS011;18731;42.830;24.390;2022-09-23T09:43:24;2.17;;;1.10;;
32242;SDS011;18731;42.830;24.390;2022-09-23T09:48:55;2.60;;;1.08;;
32242;SDS011;18731;42.830;24.390;2022-09-23T09:51:25;0.90;;;0.90;;
32242;SDS011;18731;42.830;24.390;2022-09-23T09:53:52;1.55;;;1.00;;
32242;SDS011;18731;42.830;24.390;2022-09-23T09:56:23;1.20;;;0.90;;
32242;SDS011;18731;42.830;24.390;2022-09-23T09:59:00;2.80;;;1.05;;
32242;SDS011;18731;42.830;24.390;2022-09-23T10:01:34;2.38;;;1.08;;
32242;SDS011;18731;42.830;24.390;2022-09-23T10:04:01;3.47;;;1.10;;
32242;SDS011;18731;42.830;24.390;2022-09-23T10:06:30;3.55;;;1.30;;
32242;SDS011;18731;42.830;24.390;2022-09-23T10:11:26;2.40;;;1.23;;
32242;SDS011;18731;42.830;24.390;2022-09-23T10:16:25;3.28;;;1.30;;
32242;SDS011;18731;42.830;24.390;2022-09-23T10:19:02;2.92;;;1.30;;
32242;SDS011;18731;42.830;24.390;2022-09-23T10:21:36;1.25;;;1.15;;
32242;SDS011;18731;42.830;24.390;2022-09-23T10:24:04;1.55;;;1.15;;
32242;SDS011;18731;42.830;24.390;2022-09-23T10:26:42;1.52;;;1.10;;
32242;SDS011;18731;42.830;24.390;2022-09-23T10:29:21;2.17;;;1.35;;
32242;SDS011;18731;42.830;24.390;2022-09-23T10:31:53;4.63;;;1.20;;
32242;SDS011;18731;42.830;24.390;2022-09-23T10:35:11;2.60;;;0.80;;
32242;SDS011;18731;42.830;24.390;2022-09-23T10:37:45;2.17;;;1.10;;
32242;SDS011;18731;42.830;24.390;2022-09-23T10:43:19;0.88;;;0.80;;
32242;SDS011;18731;42.830;24.390;2022-09-23T10:46:07;0.90;;;0.77;;
32242;SDS011;18731;42.830;24.390;2022-09-23T10:57:18;3.88;;;0.90;;
32242;SDS011;18731;42.830;24.390;2022-09-23T11:09:06;1.10;;;1.00;;
32242;SDS011;18731;42.830;24.390;2022-09-23T11:12:03;2.35;;;1.17;;
32242;SDS011;18731;42.830;24.390;2022-09-23T11:14:47;1.33;;;1.13;;
32242;SDS011;18731;42.830;24.390;2022-09-23T11:28:26;3.05;;;1.00;;
32242;SDS011;18731;42.830;24.390;2022-09-23T11:37:33;2.83;;;1.10;;
32242;SDS011;18731;42.830;24.390;2022-09-23T11:39:50;2.25;;;1.00;;
32242;SDS011;18731;42.830;24.390;2022-09-23T11:42:26;3.40;;;1.10;;
32242;SDS011;18731;42.830;24.390;2022-09-23T11:45:00;7.60;;;1.17;;
32242;SDS011;18731;42.830;24.390;2022-09-23T11:47:35;2.95;;;1.20;;
32242;SDS011;18731;42.830;24.390;2022-09-23T11:52:56;1.95;;;1.00;;
32242;SDS011;18731;42.830;24.390;2022-09-23T11:56:00;1.30;;;1.00;;
32242;SDS011;18731;42.830;24.390;2022-09-23T11:58:30;1.30;;;1.20;;
32242;SDS011;18731;42.830;24.390;2022-09-23T12:01:26;1.35;;;1.25;;
32242;SDS011;18731;42.830;24.390;2022-09-23T12:04:05;5.90;;;1.27;;
32242;SDS011;18731;42.830;24.390;2022-09-23T12:06:40;1.90;;;1.02;;
32242;SDS011;18731;42.830;24.390;2022-09-23T12:09:14;1.52;;;1.17;;
32242;SDS011;18731;42.830;24.390;2022-09-23T12:11:58;1.92;;;0.80;;
32242;SDS011;18731;42.830;24.390;2022-09-23T12:25:49;1.98;;;1.00;;
32242;SDS011;18731;42.830;24.390;2022-09-23T12:28:26;2.63;;;0.80;;
32242;SDS011;18731;42.830;24.390;2022-09-23T12:30:57;2.58;;;0.90;;
32242;SDS011;18731;42.830;24.390;2022-09-23T12:33:29;1.05;;;0.85;;
32242;SDS011;18731;42.830;24.390;2022-09-23T12:36:07;1.95;;;0.82;;
32242;SDS011;18731;42.830;24.390;2022-09-23T12:38:38;0.75;;;0.75;;
32242;SDS011;18731;42.830;24.390;2022-09-23T12:43:54;1.33;;;0.95;;
32242;SDS011;18731;42.830;24.390;2022-09-23T12:46:25;0.70;;;0.70;;
32242;SDS011;18731;42.830;24.390;2022-09-23T12:51:23;1.70;;;0.90;;
32242;SDS011;18731;42.830;24.390;2022-09-23T12:53:51;1.45;;;0.73;;
32242;SDS011;18731;42.830;24.390;2022-09-23T12:56:28;0.77;;;0.77;;
32242;SDS011;18731;42.830;24.390;2022-09-23T13:01:54;0.63;;;0.60;;
32242;SDS011;18731;42.830;24.390;2022-09-23T13:04:28;2.92;;;0.82;;
32242;SDS011;18731;42.830;24.390;2022-09-23T13:07:24;0.60;;;0.60;;
32242;SDS011;18731;42.830;24.390;2022-09-23T13:09:54;1.15;;;0.85;;
32242;SDS011;18731;42.830;24.390;2022-09-23T13:12:28;0.60;;;0.60;;
32242;SDS011;18731;42.830;24.390;2022-09-23T13:14:59;0.80;;;0.70;;
32242;SDS011;18731;42.830;24.390;2022-09-23T13:17:36;1.13;;;0.70;;
32242;SDS011;18731;42.830;24.390;2022-09-23T13:25:18;0.70;;;0.70;;
32242;SDS011;18731;42.830;24.390;2022-09-23T13:27:59;1.20;;;0.73;;
32242;SDS011;18731;42.830;24.390;2022-09-23T13:30:26;1.00;;;0.80;;
32242;SDS011;18731;42.830;24.390;2022-09-23T13:32:59;1.65;;;0.88;;
32242;SDS011;18731;42.830;24.390;2022-09-23T13:35:47;2.70;;;0.95;;
32242;SDS011;18731;42.830;24.390;2022-09-23T13:38:21;1.15;;;0.90;;
32242;SDS011;18731;42.830;24.390;2022-09-23T13:43:52;1.85;;;0.80;;
32242;SDS011;18731;42.830;24.390;2022-09-23T13:46:27;1.42;;;0.80;;
32242;SDS011;18731;42.830;24.390;2022-09-23T13:48:58;2.97;;;0.68;;
32242;SDS011;18731;42.830;24.390;2022-09-23T13:51:25;2.63;;;0.65;;
32242;SDS011;18731;42.830;24.390;2022-09-23T13:53:58;0.80;;;0.80;;
32242;SDS011;18731;42.830;24.390;2022-09-23T13:56:29;1.17;;;0.70;;
32242;SDS011;18731;42.830;24.390;2022-09-23T14:01:49;0.80;;;0.73;;
32242;SDS011;18731;42.830;24.390;2022-09-23T14:04:26;0.80;;;0.80;;
32242;SDS011;18731;42.830;24.390;2022-09-23T14:06:52;4.45;;;1.17;;
32242;SDS011;18731;42.830;24.390;2022-09-23T14:09:19;2.75;;;0.70;;
32242;SDS011;18731;42.830;24.390;2022-09-23T14:11:48;4.90;;;1.00;;
32242;SDS011;18731;42.830;24.390;2022-09-23T14:14:15;1.25;;;0.82;;
32242;SDS011;18731;42.830;24.390;2022-09-23T14:16:41;1.05;;;0.80;;
32242;SDS011;18731;42.830;24.390;2022-09-23T14:19:18;1.38;;;0.80;;
32242;SDS011;18731;42.830;24.390;2022-09-23T14:21:47;1.83;;;0.90;;
32242;SDS011;18731;42.830;24.390;2022-09-23T14:27:00;1.00;;;0.90;;
32242;SDS011;18731;42.830;24.390;2022-09-23T14:29:32;2.10;;;1.00;;
32242;SDS011;18731;42.830;24.390;2022-09-23T14:32:02;2.15;;;1.00;;
32242;SDS011;18731;42.830;24.390;2022-09-23T14:34:38;1.42;;;1.10;;
32242;SDS011;18731;42.830;24.390;2022-09-23T14:37:22;0.85;;;0.82;;
32242;SDS011;18731;42.830;24.390;2022-09-23T14:40:26;4.00;;;0.93;;
32242;SDS011;18731;42.830;24.390;2022-09-23T14:45:34;1.00;;;0.90;;
32242;SDS011;18731;42.830;24.390;2022-09-23T14:48:05;4.07;;;1.13;;
32242;SDS011;18731;42.830;24.390;2022-09-23T14:50:34;2.55;;;1.30;;
32242;SDS011;18731;42.830;24.390;2022-09-23T14:53:04;2.85;;;1.10;;
32242;SDS011;18731;42.830;24.390;2022-09-23T14:55:51;4.20;;;1.13;;
32242;SDS011;18731;42.830;24.390;2022-09-23T14:58:24;4.95;;;1.17;;
32242;SDS011;18731;42.830;24.390;2022-09-23T15:00:55;2.10;;;1.35;;
32242;SDS011;18731;42.830;24.390;2022-09-23T15:03:24;4.53;;;1.27;;
32242;SDS011;18731;42.830;24.390;2022-09-23T15:05:56;1.83;;;1.45;;
32242;SDS011;18731;42.830;24.390;2022-09-23T15:08:28;9.60;;;1.70;;
32242;SDS011;18731;42.830;24.390;2022-09-23T15:10:55;3.28;;;1.42;;
32242;SDS011;18731;42.830;24.390;2022-09-23T15:13:30;6.60;;;1.30;;
32242;SDS011;18731;42.830;24.390;2022-09-23T15:16:01;4.30;;;1.60;;
32242;SDS011;18731;42.830;24.390;2022-09-23T15:18:32;2.95;;;2.38;;
32242;SDS011;18731;42.830;24.390;2022-09-23T15:21:01;3.47;;;1.50;;
32242;SDS011;18731;42.830;24.390;2022-09-23T15:23:42;3.95;;;1.40;;
32242;SDS011;18731;42.830;24.390;2022-09-23T15:26:13;1.75;;;1.33;;
32242;SDS011;18731;42.830;24.390;2022-09-23T15:28:39;3.30;;;1.42;;
32242;SDS011;18731;42.830;24.390;2022-09-23T15:31:16;5.78;;;1.60;;
32242;SDS011;18731;42.830;24.390;2022-09-23T15:33:43;1.75;;;1.63;;
32242;SDS011;18731;42.830;24.390;2022-09-23T15:36:19;4.82;;;1.52;;
32242;SDS011;18731;42.830;24.390;2022-09-23T15:38:47;8.55;;;1.88;;
32242;SDS011;18731;42.830;24.390;2022-09-23T15:41:14;6.90;;;1.60;;
32242;SDS011;18731;42.830;24.390;2022-09-23T15:43:40;2.13;;;1.50;;
32242;SDS011;18731;42.830;24.390;2022-09-23T15:49:02;8.35;;;2.00;;
32242;SDS011;18731;42.830;24.390;2022-09-23T15:51:32;13.35;;;5.50;;
32242;SDS011;18731;42.830;24.390;2022-09-23T15:54:01;3.83;;;2.00;;
32242;SDS011;18731;42.830;24.390;2022-09-23T15:56:26;6.80;;;3.40;;
32242;SDS011;18731;42.830;24.390;2022-09-23T15:58:52;6.65;;;3.05;;
32242;SDS011;18731;42.830;24.390;2022-09-23T16:03:52;2.85;;;1.88;;
32242;SDS011;18731;42.830;24.390;2022-09-23T16:06:18;6.22;;;2.60;;
32242;SDS011;18731;42.830;24.390;2022-09-23T16:08:44;4.85;;;2.05;;
32242;SDS011;18731;42.830;24.390;2022-09-23T16:11:17;5.35;;;2.10;;
32242;SDS011;18731;42.830;24.390;2022-09-23T16:13:48;3.88;;;2.30;;
32242;SDS011;18731;42.830;24.390;2022-09-23T16:16:14;2.28;;;2.08;;
32242;SDS011;18731;42.830;24.390;2022-09-23T16:18:41;8.30;;;2.85;;
32242;SDS011;18731;42.830;24.390;2022-09-23T16:21:11;3.00;;;2.53;;
32242;SDS011;18731;42.830;24.390;2022-09-23T16:23:39;5.80;;;2.80;;
32242;SDS011;18731;42.830;24.390;2022-09-23T16:26:13;6.43;;;3.17;;
32242;SDS011;18731;42.830;24.390;2022-09-23T16:28:42;7.53;;;3.40;;
32242;SDS011;18731;42.830;24.390;2022-09-23T16:31:09;15.52;;;4.75;;
32242;SDS011;18731;42.830;24.390;2022-09-23T16:33:36;10.85;;;5.53;;
32242;SDS011;18731;42.830;24.390;2022-09-23T16:36:02;11.95;;;7.05;;
32242;SDS011;18731;42.830;24.390;2022-09-23T16:38:29;9.23;;;4.95;;
32242;SDS011;18731;42.830;24.390;2022-09-23T16:40:56;6.70;;;4.55;;
32242;SDS011;18731;42.830;24.390;2022-09-23T16:43:27;14.32;;;6.65;;
32242;SDS011;18731;42.830;24.390;2022-09-23T16:45:56;14.38;;;9.07;;
32242;SDS011;18731;42.830;24.390;2022-09-23T16:48:22;12.43;;;7.95;;
32242;SDS011;18731;42.830;24.390;2022-09-23T16:50:49;10.45;;;6.05;;
32242;SDS011;18731;42.830;24.390;2022-09-23T16:53:18;13.45;;;8.13;;
32242;SDS011;18731;42.830;24.390;2022-09-23T16:55:44;7.80;;;5.80;;
32242;SDS011;18731;42.830;24.390;2022-09-23T16:58:10;10.80;;;6.10;;
32242;SDS011;18731;42.830;24.390;2022-09-23T17:00:35;9.50;;;4.88;;
32242;SDS011;18731;42.830;24.390;2022-09-23T17:03:20;16.08;;;7.82;;
32242;SDS011;18731;42.830;24.390;2022-09-23T17:06:05;11.88;;;6.32;;
32242;SDS011;18731;42.830;24.390;2022-09-23T17:08:32;9.35;;;6.80;;
32242;SDS011;18731;42.830;24.390;2022-09-23T17:10:58;9.45;;;5.53;;
32242;SDS011;18731;42.830;24.390;2022-09-23T17:13:25;9.80;;;4.70;;
32242;SDS011;18731;42.830;24.390;2022-09-23T17:15:52;4.30;;;3.75;;
32242;SDS011;18731;42.830;24.390;2022-09-23T17:18:18;11.68;;;4.50;;
32242;SDS011;18731;42.830;24.390;2022-09-23T17:20:55;10.20;;;4.63;;
32242;SDS011;18731;42.830;24.390;2022-09-23T17:23:22;6.47;;;4.57;;
32242;SDS011;18731;42.830;24.390;2022-09-23T17:25:49;11.57;;;4.72;;
32242;SDS011;18731;42.830;24.390;2022-09-23T17:28:14;6.93;;;4.85;;
32242;SDS011;18731;42.830;24.390;2022-09-23T17:30:40;7.53;;;4.45;;
32242;SDS011;18731;42.830;24.390;2022-09-23T17:33:05;8.02;;;3.60;;
32242;SDS011;18731;42.830;24.390;2022-09-23T17:35:31;8.98;;;4.50;;
32242;SDS011;18731;42.830;24.390;2022-09-23T17:37:56;5.15;;;3.58;;
32242;SDS011;18731;42.830;24.390;2022-09-23T17:40:22;4.65;;;3.60;;
32242;SDS011;18731;42.830;24.390;2022-09-23T17:42:50;9.00;;;3.92;;
32242;SDS011;18731;42.830;24.390;2022-09-23T17:45:17;5.68;;;3.63;;
32242;SDS011;18731;42.830;24.390;2022-09-23T17:47:43;5.60;;;3.90;;
32242;SDS011;18731;42.830;24.390;2022-09-23T17:50:19;7.28;;;3.05;;
32242;SDS011;18731;42.830;24.390;2022-09-23T17:52:48;6.63;;;4.10;;
32242;SDS011;18731;42.830;24.390;2022-09-23T17:55:14;5.85;;;4.05;;
32242;SDS011;18731;42.830;24.390;2022-09-23T17:57:41;15.50;;;7.05;;
32242;SDS011;18731;42.830;24.390;2022-09-23T18:00:06;6.88;;;4.78;;
32242;SDS011;18731;42.830;24.390;2022-09-23T18:02:34;6.45;;;4.35;;
32242;SDS011;18731;42.830;24.390;2022-09-23T18:04:59;15.20;;;3.60;;
32242;SDS011;18731;42.830;24.390;2022-09-23T18:07:25;5.38;;;3.70;;
32242;SDS011;18731;42.830;24.390;2022-09-23T18:09:51;7.70;;;4.93;;
32242;SDS011;18731;42.830;24.390;2022-09-23T18:12:16;12.77;;;5.00;;
32242;SDS011;18731;42.830;24.390;2022-09-23T18:14:42;5.25;;;4.07;;
32242;SDS011;18731;42.830;24.390;2022-09-23T18:17:09;6.05;;;4.60;;
32242;SDS011;18731;42.830;24.390;2022-09-23T18:19:35;5.40;;;4.13;;
32242;SDS011;18731;42.830;24.390;2022-09-23T18:22:00;7.10;;;4.18;;
32242;SDS011;18731;42.830;24.390;2022-09-23T18:24:27;7.85;;;3.88;;
32242;SDS011;18731;42.830;24.390;2022-09-23T18:26:52;5.30;;;4.10;;
32242;SDS011;18731;42.830;24.390;2022-09-23T18:29:21;14.27;;;5.15;;
32242;SDS011;18731;42.830;24.390;2022-09-23T18:31:46;9.25;;;6.10;;
32242;SDS011;18731;42.830;24.390;2022-09-23T18:34:14;9.13;;;5.78;;
32242;SDS011;18731;42.830;24.390;2022-09-23T18:36:44;8.55;;;3.53;;
32242;SDS011;18731;42.830;24.390;2022-09-23T18:39:10;9.02;;;5.90;;
32242;SDS011;18731;42.830;24.390;2022-09-23T18:41:35;15.35;;;6.88;;
32242;SDS011;18731;42.830;24.390;2022-09-23T18:44:01;9.55;;;5.80;;
32242;SDS011;18731;42.830;24.390;2022-09-23T18:46:28;9.13;;;6.43;;
32242;SDS011;18731;42.830;24.390;2022-09-23T18:48:54;12.77;;;6.53;;
32242;SDS011;18731;42.830;24.390;2022-09-23T18:52:12;13.52;;;7.50;;
32242;SDS011;18731;42.830;24.390;2022-09-23T18:54:31;9.05;;;5.00;;
32242;SDS011;18731;42.830;24.390;2022-09-23T18:56:57;7.90;;;3.97;;
32242;SDS011;18731;42.830;24.390;2022-09-23T18:59:23;9.88;;;4.28;;
32242;SDS011;18731;42.830;24.390;2022-09-23T19:01:53;15.55;;;7.47;;
32242;SDS011;18731;42.830;24.390;2022-09-23T19:04:20;13.50;;;4.43;;
32242;SDS011;18731;42.830;24.390;2022-09-23T19:06:47;12.15;;;6.55;;
32242;SDS011;18731;42.830;24.390;2022-09-23T19:09:14;17.48;;;5.50;;
32242;SDS011;18731;42.830;24.390;2022-09-23T19:11:40;7.35;;;5.30;;
32242;SDS011;18731;42.830;24.390;2022-09-23T19:14:08;9.52;;;5.80;;
32242;SDS011;18731;42.830;24.390;2022-09-23T19:16:35;9.75;;;4.03;;
32242;SDS011;18731;42.830;24.390;2022-09-23T19:19:02;5.30;;;4.20;;
32242;SDS011;18731;42.830;24.390;2022-09-23T19:21:29;11.25;;;4.53;;
32242;SDS011;18731;42.830;24.390;2022-09-23T19:23:56;14.88;;;9.27;;
32242;SDS011;18731;42.830;24.390;2022-09-23T19:26:29;14.20;;;6.95;;
32242;SDS011;18731;42.830;24.390;2022-09-23T19:28:57;19.88;;;9.43;;
32242;SDS011;18731;42.830;24.390;2022-09-23T19:31:25;17.20;;;7.60;;
32242;SDS011;18731;42.830;24.390;2022-09-23T19:33:54;12.43;;;5.80;;
32242;SDS011;18731;42.830;24.390;2022-09-23T19:36:22;10.85;;;5.15;;
32242;SDS011;18731;42.830;24.390;2022-09-23T19:38:57;10.75;;;4.32;;
32242;SDS011;18731;42.830;24.390;2022-09-23T19:41:25;15.02;;;5.60;;